Pagina principale
METAR-TAF:

METAR-TAF

Aeroporti :

Savonlinna, Finlandia

latitudine: 61-57N, longitudine: 028-57E, altezza: 95 m

Osservazione

Il bollettino è stato emesso 33 minuti fa, alle 18:50 UTC
Vento 3 kt da est/nord-est, variando fra nord/nord-est e sud-est
Temperature 14°C
Umidità 77%
Pressione 1010 hPa
Visibilità 10 km o più
nessuna nube inferiore a 1500 m e nessun cumulonembo

METAR: EFSA 101850Z AUTO 07003KT 020V130 CAVOK 14/10 Q1010

Ora: 22:23 (19:23 UTC)


TAF: mancante

Osservazioni e previsioni meteorologiche di più di 4000 aeroporti (messaggi METAR e TAF).

Le stazioni disponibili sono rappresentate dai dischi gialli e rossi sulla carta.

Puntare il mouse per vedere il nome della stazione.

Clicca sopra per visualizzare le osservazioni e previsioni meteorologiche.

Per cambiare la mappa : fare clic sui pulsanti verdi con una croce nera per ingrandire, il pulsante verde con un trattino per diminuire, o sulla freccia verde per le mappe adiacenti.


METAR-TAF: